createdAt,value
2022-10-01T06:28:47.081Z,44.97
2022-10-01T06:48:49.977Z,40.72
2022-10-01T07:08:52.921Z,35.05
2022-10-01T07:28:56.246Z,37.40
2022-10-01T07:48:58.105Z,29.67
2022-10-01T08:09:01.329Z,24.85
2022-10-01T08:29:03.314Z,22.40
2022-10-01T08:49:05.765Z,19.23
2022-10-01T09:09:08.018Z,17.90
2022-10-01T09:29:13.141Z,14.80
2022-10-01T09:49:15.334Z,15.02
2022-10-01T10:09:20.383Z,13.50
2022-10-01T10:29:24.781Z,11.52
2022-10-01T10:49:26.931Z,11.77
2022-10-01T11:09:28.987Z,11.73
2022-10-01T11:29:31.345Z,10.38
2022-10-01T11:49:32.892Z,9.50
2022-10-01T12:09:35.294Z,9.38
2022-10-01T12:29:37.163Z,6.13
2022-10-01T12:49:39.746Z,4.85
2022-10-01T13:09:45.360Z,4.20
2022-10-01T13:29:50.808Z,3.15
2022-10-01T13:49:52.779Z,3.95
2022-10-01T14:09:56.981Z,4.85
2022-10-01T14:29:58.473Z,6.90
2022-10-01T14:50:01.954Z,6.53
2022-10-01T15:10:03.473Z,7.03
2022-10-01T15:30:05.946Z,5.40
2022-10-01T15:50:08.243Z,4.82
2022-10-01T16:10:10.518Z,4.00
2022-10-01T16:30:12.152Z,3.20
2022-10-01T16:50:14.787Z,4.30
2022-10-01T17:10:16.379Z,3.10
2022-10-01T17:30:19.052Z,3.22
2022-10-01T17:50:20.887Z,5.15
2022-10-01T18:10:22.979Z,5.75
2022-10-01T18:30:24.877Z,2.20
2022-10-01T18:50:26.974Z,2.65
2022-10-01T19:10:28.482Z,3.97
2022-10-01T19:30:30.744Z,1.92
2022-10-01T19:50:35.178Z,1.73
2022-10-01T20:51:57.297Z,2.17
2022-10-01T21:11:59.097Z,1.70
2022-10-01T21:32:01.762Z,2.15
2022-10-01T21:52:03.341Z,2.45
2022-10-01T22:12:06.662Z,3.97
2022-10-01T22:32:08.699Z,4.32
2022-10-01T22:52:10.805Z,4.90
2022-10-01T23:12:12.364Z,2.22
2022-10-01T23:32:14.609Z,2.20
2022-10-01T23:52:16.893Z,1.70
